createdAt,value
2017-08-12T00:00:00.385Z,99.99
2017-08-12T00:00:28.511Z,99.99
2017-08-12T00:00:56.690Z,99.99
2017-08-12T00:01:25.039Z,99.99
2017-08-12T00:01:53.254Z,99.99
2017-08-12T00:02:21.533Z,99.99
2017-08-12T00:02:49.665Z,99.99
2017-08-12T00:03:17.805Z,99.99
2017-08-12T00:03:46.010Z,99.99
2017-08-12T00:04:14.149Z,99.99
2017-08-12T00:04:42.269Z,99.99
2017-08-12T00:05:10.378Z,99.99
2017-08-12T00:05:38.550Z,99.99
2017-08-12T00:06:06.778Z,99.99
2017-08-12T00:06:35.003Z,99.99
2017-08-12T00:07:03.140Z,99.99
2017-08-12T00:07:31.283Z,99.99
2017-08-12T00:07:59.509Z,99.99
2017-08-12T00:08:27.644Z,99.99
2017-08-12T00:08:55.677Z,99.99
2017-08-12T00:09:23.933Z,99.99
2017-08-12T00:09:52.136Z,99.99
2017-08-12T00:10:20.278Z,99.99
2017-08-12T00:10:48.451Z,99.99
2017-08-12T00:11:16.579Z,99.99
2017-08-12T00:11:44.757Z,99.99
2017-08-12T00:12:12.852Z,99.99
2017-08-12T00:12:41.094Z,99.99
2017-08-12T00:13:09.303Z,99.99
2017-08-12T00:13:37.384Z,99.99
2017-08-12T00:14:05.514Z,99.99
2017-08-12T00:14:33.612Z,99.99
2017-08-12T00:15:01.726Z,99.99
2017-08-12T00:15:29.950Z,99.99
2017-08-12T00:15:58.165Z,99.99
2017-08-12T00:16:26.208Z,99.99
2017-08-12T00:16:54.510Z,99.99
2017-08-12T00:17:22.604Z,99.99
2017-08-12T00:17:50.770Z,99.99
2017-08-12T00:18:18.958Z,99.99
2017-08-12T00:18:47.086Z,99.99
2017-08-12T00:19:15.269Z,99.99
2017-08-12T00:19:43.238Z,99.99
2017-08-12T00:20:11.368Z,99.99
2017-08-12T00:20:39.650Z,99.99
2017-08-12T00:21:07.858Z,99.99
2017-08-12T00:21:36.054Z,99.99
2017-08-12T00:22:04.299Z,99.99
2017-08-12T00:22:32.410Z,99.99
2017-08-12T00:23:00.671Z,99.99
2017-08-12T00:23:28.801Z,99.99
2017-08-12T00:23:57.056Z,99.99
2017-08-12T00:24:25.256Z,99.99
2017-08-12T00:24:53.321Z,99.99
2017-08-12T00:25:21.528Z,99.99
2017-08-12T00:25:49.731Z,99.99
2017-08-12T00:26:17.930Z,99.99
2017-08-12T00:26:45.990Z,99.99
2017-08-12T00:27:14.172Z,99.99
2017-08-12T00:27:42.304Z,99.99
2017-08-12T00:28:10.466Z,99.99
2017-08-12T00:28:38.631Z,99.99
2017-08-12T00:29:06.693Z,99.99
2017-08-12T00:29:34.912Z,99.99
2017-08-12T00:30:03.448Z,99.99
2017-08-12T00:30:31.600Z,99.99
2017-08-12T00:30:59.774Z,99.99
2017-08-12T00:31:27.923Z,99.99
2017-08-12T00:31:56.113Z,99.99
2017-08-12T00:32:24.309Z,99.99
2017-08-12T00:32:52.625Z,99.99
2017-08-12T00:33:20.664Z,99.99
2017-08-12T00:33:48.872Z,99.99
2017-08-12T00:34:17.086Z,99.99
2017-08-12T00:34:45.252Z,99.99
2017-08-12T00:35:13.366Z,99.99
2017-08-12T00:35:41.402Z,99.99
2017-08-12T00:36:09.618Z,99.99
2017-08-12T00:36:37.621Z,99.99
2017-08-12T00:37:05.886Z,99.99
2017-08-12T00:37:33.918Z,99.99
2017-08-12T00:38:01.853Z,99.99
2017-08-12T00:38:30.046Z,99.99
2017-08-12T00:38:58.336Z,99.99
2017-08-12T00:39:26.562Z,99.99
2017-08-12T00:39:54.704Z,99.99
2017-08-12T00:40:22.909Z,99.99
2017-08-12T00:40:51.073Z,99.99
2017-08-12T00:41:19.247Z,99.99
2017-08-12T00:41:47.380Z,99.99
2017-08-12T00:42:15.444Z,99.99
2017-08-12T00:42:43.698Z,99.99
2017-08-12T00:43:11.806Z,99.99
2017-08-12T00:43:39.975Z,99.99
2017-08-12T00:44:08.119Z,99.99
2017-08-12T00:44:36.194Z,99.99
2017-08-12T00:45:04.348Z,99.99
2017-08-12T00:45:32.464Z,99.99
2017-08-12T00:46:00.816Z,99.99
2017-08-12T00:46:29.107Z,99.99
2017-08-12T00:46:57.163Z,99.99
2017-08-12T00:47:25.399Z,99.99
2017-08-12T00:47:53.426Z,99.99
2017-08-12T00:48:21.679Z,99.99
2017-08-12T00:48:49.958Z,99.99
2017-08-12T00:49:18.006Z,99.99
2017-08-12T00:49:46.171Z,99.99
2017-08-12T00:50:14.234Z,99.99
2017-08-12T00:50:42.473Z,99.99
2017-08-12T00:51:10.624Z,99.99
2017-08-12T00:51:38.757Z,99.99
2017-08-12T00:52:07.212Z,99.99
2017-08-12T00:52:35.382Z,99.99
2017-08-12T00:53:03.636Z,99.99
2017-08-12T00:53:31.905Z,99.99
2017-08-12T00:54:00.065Z,99.99
2017-08-12T00:54:28.139Z,99.99
2017-08-12T00:54:56.389Z,99.99
2017-08-12T00:55:24.638Z,99.99
2017-08-12T00:55:52.676Z,99.99
2017-08-12T00:56:20.922Z,99.99
2017-08-12T00:56:49.165Z,99.99
2017-08-12T00:57:17.965Z,99.99
2017-08-12T00:57:46.140Z,99.99
2017-08-12T00:58:14.253Z,99.99
2017-08-12T00:58:42.321Z,99.99
2017-08-12T00:59:10.346Z,99.99
2017-08-12T00:59:38.551Z,99.99
2017-08-12T01:00:06.557Z,99.99
2017-08-12T01:00:34.673Z,99.99
2017-08-12T01:01:02.815Z,99.99
2017-08-12T01:01:30.856Z,99.99
2017-08-12T01:01:59.012Z,99.99
2017-08-12T01:02:27.342Z,99.99
2017-08-12T01:02:55.423Z,99.99
2017-08-12T01:03:23.573Z,99.99
2017-08-12T01:03:51.627Z,99.99
2017-08-12T01:04:19.787Z,99.99
2017-08-12T01:04:48.040Z,99.99
2017-08-12T01:05:16.175Z,99.99
2017-08-12T01:05:44.286Z,99.99
2017-08-12T01:06:12.504Z,99.99
2017-08-12T01:06:40.741Z,99.99
2017-08-12T01:07:08.989Z,99.99
2017-08-12T01:07:37.155Z,99.99
2017-08-12T01:08:05.159Z,99.99
2017-08-12T01:08:33.294Z,99.99
2017-08-12T01:09:01.413Z,99.99
2017-08-12T01:09:29.660Z,99.99
2017-08-12T01:09:57.786Z,99.99
2017-08-12T01:10:25.905Z,99.99
2017-08-12T01:10:53.959Z,99.99
2017-08-12T01:11:22.070Z,99.99
2017-08-12T01:11:50.145Z,99.99
2017-08-12T01:12:18.405Z,99.99
2017-08-12T01:12:46.621Z,99.99
2017-08-12T01:13:14.892Z,99.99
2017-08-12T01:13:43.125Z,99.99
2017-08-12T01:14:11.354Z,99.99
2017-08-12T01:14:39.503Z,99.99
2017-08-12T01:15:07.751Z,99.99
2017-08-12T01:15:35.877Z,99.99
2017-08-12T01:16:04.054Z,99.99
2017-08-12T01:16:32.300Z,99.99
2017-08-12T01:17:00.428Z,99.99
2017-08-12T01:17:28.629Z,99.99
2017-08-12T01:17:56.647Z,99.99
2017-08-12T01:18:24.907Z,99.99
2017-08-12T01:18:52.925Z,99.81
2017-08-12T01:19:20.986Z,99.99
2017-08-12T01:19:48.995Z,99.91
2017-08-12T01:20:17.210Z,99.62
2017-08-12T01:20:45.243Z,99.72
2017-08-12T01:21:13.328Z,99.62
2017-08-12T01:21:41.446Z,99.62
2017-08-12T01:22:09.568Z,99.15
2017-08-12T01:22:37.714Z,99.15
2017-08-12T01:23:05.896Z,99.15
2017-08-12T01:23:34.118Z,99.15
2017-08-12T01:24:02.276Z,99.15
2017-08-12T01:24:30.341Z,99.24
2017-08-12T01:24:58.573Z,99.24
2017-08-12T01:25:26.842Z,99.52
2017-08-12T01:25:55.045Z,99.43
2017-08-12T01:26:23.189Z,99.05
2017-08-12T01:26:51.398Z,98.95
2017-08-12T01:27:19.267Z,99.24
2017-08-12T01:27:47.661Z,98.86
2017-08-12T01:28:15.767Z,99.05
2017-08-12T01:28:43.883Z,98.95
2017-08-12T01:29:11.927Z,99.05
2017-08-12T01:29:39.943Z,98.86
2017-08-12T01:30:08.082Z,98.95
2017-08-12T01:30:36.314Z,98.95
2017-08-12T01:31:04.548Z,98.66
2017-08-12T01:31:32.731Z,98.76
2017-08-12T01:32:00.851Z,99.05
2017-08-12T01:32:28.983Z,98.86
2017-08-12T01:32:57.229Z,99.05
2017-08-12T01:33:25.377Z,98.86
2017-08-12T01:33:53.639Z,98.76
2017-08-12T01:34:21.799Z,98.86
2017-08-12T01:34:49.959Z,98.86
2017-08-12T01:35:17.955Z,98.95
2017-08-12T01:35:46.067Z,98.95
2017-08-12T01:36:14.235Z,98.86
2017-08-12T01:36:42.510Z,98.86
2017-08-12T01:37:10.725Z,98.95
2017-08-12T01:37:38.835Z,99.05
2017-08-12T01:38:07.225Z,99.05
2017-08-12T01:38:35.442Z,99.05
2017-08-12T01:39:03.499Z,99.05
2017-08-12T01:39:31.731Z,99.05
2017-08-12T01:40:00.184Z,98.66
2017-08-12T01:40:28.395Z,98.86
2017-08-12T01:40:56.589Z,99.15
2017-08-12T01:41:24.790Z,99.05
2017-08-12T01:41:52.967Z,99.05
2017-08-12T01:42:21.139Z,99.33
2017-08-12T01:42:49.376Z,98.86
2017-08-12T01:43:17.498Z,99.24
2017-08-12T01:43:45.643Z,99.05
2017-08-12T01:44:13.715Z,98.95
2017-08-12T01:44:41.934Z,99.05
2017-08-12T01:45:10.190Z,99.33
2017-08-12T01:45:38.494Z,99.43
2017-08-12T01:46:06.685Z,99.24
2017-08-12T01:46:34.887Z,99.43
2017-08-12T01:47:02.888Z,99.05
2017-08-12T01:47:31.045Z,99.24
2017-08-12T01:47:59.287Z,99.15
2017-08-12T01:48:27.458Z,99.33
2017-08-12T01:48:55.707Z,99.33
2017-08-12T01:49:23.898Z,99.05
2017-08-12T01:49:51.990Z,99.62
2017-08-12T01:50:20.138Z,99.33
2017-08-12T01:50:48.260Z,99.72
2017-08-12T01:51:16.449Z,99.43
2017-08-12T01:51:44.525Z,99.52
2017-08-12T01:52:12.725Z,99.72
2017-08-12T01:52:40.761Z,99.81
2017-08-12T01:53:08.733Z,99.91
2017-08-12T01:53:36.867Z,99.91
2017-08-12T01:54:05.022Z,99.91
2017-08-12T01:54:33.231Z,99.91
2017-08-12T01:55:01.395Z,99.91
2017-08-12T01:55:29.551Z,99.91
2017-08-12T01:55:57.752Z,99.99
2017-08-12T01:56:26.055Z,99.52
2017-08-12T01:56:54.303Z,99.99
2017-08-12T01:57:22.337Z,99.99
2017-08-12T01:57:50.410Z,99.91
2017-08-12T01:58:18.787Z,99.91
2017-08-12T01:58:46.929Z,99.81
2017-08-12T01:59:15.149Z,99.99
2017-08-12T01:59:43.293Z,99.99
2017-08-12T02:00:11.372Z,99.99
2017-08-12T02:00:39.586Z,99.99
2017-08-12T02:01:07.790Z,99.99
2017-08-12T02:01:36.048Z,99.99
2017-08-12T02:02:04.058Z,99.99
2017-08-12T02:02:32.323Z,99.99
2017-08-12T02:03:00.459Z,99.99
2017-08-12T02:03:28.645Z,99.99
2017-08-12T02:03:56.767Z,99.99
2017-08-12T02:04:24.801Z,99.99
2017-08-12T02:04:52.986Z,99.99
2017-08-12T02:05:21.077Z,99.99
2017-08-12T02:05:49.362Z,99.99
2017-08-12T02:06:17.430Z,99.99
2017-08-12T02:06:45.481Z,99.99
2017-08-12T02:07:13.621Z,99.99
2017-08-12T02:07:41.698Z,99.99
2017-08-12T02:08:09.963Z,99.99
2017-08-12T02:08:38.191Z,99.99
2017-08-12T02:09:06.348Z,99.99
2017-08-12T02:09:34.391Z,99.99
2017-08-12T02:10:02.578Z,99.99
2017-08-12T02:10:30.678Z,99.99
2017-08-12T02:10:58.682Z,99.99
2017-08-12T02:11:26.920Z,99.99
2017-08-12T02:11:55.077Z,99.99
2017-08-12T02:12:23.082Z,99.99
2017-08-12T02:12:51.260Z,99.99
2017-08-12T02:13:19.610Z,99.99
2017-08-12T02:13:47.712Z,99.99
2017-08-12T02:14:15.910Z,99.99
2017-08-12T02:14:44.084Z,99.99
2017-08-12T02:15:12.283Z,99.99
2017-08-12T02:15:40.131Z,99.99
2017-08-12T02:16:08.365Z,99.99
2017-08-12T02:16:36.650Z,99.99
2017-08-12T02:17:04.885Z,99.99
2017-08-12T02:17:33.052Z,99.99
2017-08-12T02:18:01.102Z,99.99
2017-08-12T02:18:29.479Z,99.99
2017-08-12T02:18:57.713Z,99.99
2017-08-12T02:19:25.821Z,99.99
2017-08-12T02:19:53.887Z,99.99
2017-08-12T02:20:22.061Z,99.99
2017-08-12T02:20:50.202Z,99.99
2017-08-12T02:21:18.190Z,99.99
2017-08-12T02:21:46.436Z,99.99
2017-08-12T02:22:14.662Z,99.99
2017-08-12T02:22:42.784Z,99.99
2017-08-12T02:23:10.857Z,99.99
2017-08-12T02:23:39.034Z,99.99
2017-08-12T02:24:07.125Z,99.99
2017-08-12T02:24:35.305Z,99.99
2017-08-12T02:25:03.555Z,99.99
2017-08-12T02:25:31.804Z,99.99
2017-08-12T02:25:59.859Z,99.99
2017-08-12T02:26:27.990Z,99.99
2017-08-12T02:26:56.125Z,99.99
2017-08-12T02:27:24.182Z,99.99
2017-08-12T02:27:52.305Z,99.99
2017-08-12T02:28:20.537Z,99.99
2017-08-12T02:28:48.803Z,99.99
2017-08-12T02:29:16.915Z,99.99
2017-08-12T02:29:45.121Z,99.99
2017-08-12T02:30:13.315Z,99.99
2017-08-12T02:30:41.378Z,99.99
2017-08-12T02:31:09.708Z,99.99
2017-08-12T02:31:37.919Z,99.99
2017-08-12T02:32:06.085Z,99.99
2017-08-12T02:32:34.094Z,99.99
2017-08-12T02:33:02.089Z,99.99
2017-08-12T02:33:30.354Z,99.99
2017-08-12T02:33:58.495Z,99.99
2017-08-12T02:34:26.669Z,99.99
2017-08-12T02:34:54.831Z,99.99
2017-08-12T02:35:23.065Z,99.99
2017-08-12T02:35:51.181Z,99.99
2017-08-12T02:36:19.231Z,99.99
2017-08-12T02:36:47.461Z,99.99
2017-08-12T02:37:15.408Z,99.99
2017-08-12T02:37:43.636Z,99.99
2017-08-12T02:38:11.817Z,99.99
2017-08-12T02:38:39.850Z,99.99
2017-08-12T02:39:08.049Z,99.99
2017-08-12T02:39:36.319Z,99.99
2017-08-12T02:40:04.434Z,99.99
2017-08-12T02:40:32.566Z,99.99
2017-08-12T02:41:00.668Z,99.99
2017-08-12T02:41:28.793Z,99.99
2017-08-12T02:41:56.874Z,99.99
2017-08-12T02:42:25.185Z,99.99
2017-08-12T02:42:53.392Z,99.99
2017-08-12T02:43:21.373Z,99.99
2017-08-12T02:43:49.606Z,99.99
2017-08-12T02:44:17.770Z,99.99
2017-08-12T02:44:45.949Z,99.99
2017-08-12T02:45:14.030Z,99.99
2017-08-12T02:45:42.014Z,99.99
2017-08-12T02:46:10.086Z,99.99
2017-08-12T02:46:38.380Z,99.99
2017-08-12T02:47:06.528Z,99.99
2017-08-12T02:47:34.814Z,99.99
2017-08-12T02:48:03.004Z,99.99
2017-08-12T02:48:31.182Z,99.99
2017-08-12T02:48:59.498Z,99.99
2017-08-12T02:49:27.725Z,99.99
2017-08-12T02:49:55.802Z,99.99
2017-08-12T02:50:23.824Z,99.99
2017-08-12T02:50:51.850Z,99.99
2017-08-12T02:51:20.085Z,99.99
2017-08-12T02:51:48.297Z,99.99
2017-08-12T02:52:16.473Z,99.99
2017-08-12T02:52:44.614Z,99.99
2017-08-12T02:53:12.669Z,99.99
2017-08-12T02:53:40.680Z,99.99
2017-08-12T02:54:09.057Z,99.99
2017-08-12T02:54:37.187Z,99.99
2017-08-12T02:55:05.328Z,99.99
2017-08-12T02:55:33.403Z,99.99
2017-08-12T02:56:01.455Z,99.99
2017-08-12T02:56:29.548Z,99.99
2017-08-12T02:56:57.820Z,99.99
2017-08-12T02:57:26.021Z,99.99
2017-08-12T02:57:54.147Z,99.99
2017-08-12T02:58:22.252Z,99.99
2017-08-12T02:58:50.627Z,99.99
2017-08-12T02:59:18.735Z,99.99
2017-08-12T02:59:46.850Z,99.99
2017-08-12T03:00:15.064Z,99.99
2017-08-12T03:00:43.326Z,99.99
2017-08-12T03:01:11.435Z,99.99
2017-08-12T03:01:39.648Z,99.99
2017-08-12T03:02:07.871Z,99.99
2017-08-12T03:02:36.126Z,99.99
2017-08-12T03:03:04.238Z,99.99
2017-08-12T03:03:32.363Z,99.99
2017-08-12T03:04:00.792Z,99.99
2017-08-12T03:04:28.863Z,99.99
2017-08-12T03:04:57.166Z,99.99
2017-08-12T03:05:25.428Z,99.99
2017-08-12T03:05:53.630Z,99.99
2017-08-12T03:06:21.770Z,99.99
2017-08-12T03:06:49.885Z,99.96
2017-08-12T03:07:18.093Z,99.96
2017-08-12T03:07:46.221Z,99.72
2017-08-12T03:08:14.457Z,99.58
2017-08-12T03:08:42.652Z,99.67
2017-08-12T03:09:10.956Z,99.91
2017-08-12T03:09:39.166Z,99.77
2017-08-12T03:10:07.190Z,99.72
2017-08-12T03:10:35.460Z,99.67
2017-08-12T03:11:03.590Z,99.99
2017-08-12T03:11:31.709Z,99.99
2017-08-12T03:11:59.841Z,99.67
2017-08-12T03:12:27.947Z,99.91
2017-08-12T03:12:55.984Z,99.91
2017-08-12T03:13:23.932Z,99.99
2017-08-12T03:13:52.034Z,99.33
2017-08-12T03:14:20.370Z,99.99
2017-08-12T03:14:48.454Z,99.67
2017-08-12T03:15:16.635Z,99.62
2017-08-12T03:15:44.782Z,99.62
2017-08-12T03:16:13.022Z,99.96
2017-08-12T03:16:41.211Z,99.99
2017-08-12T03:17:09.325Z,99.24
2017-08-12T03:17:37.480Z,99.48
2017-08-12T03:18:05.630Z,99.72
2017-08-12T03:18:33.812Z,99.72
2017-08-12T03:19:01.963Z,99.33
2017-08-12T03:19:30.132Z,99.81
2017-08-12T03:19:58.341Z,99.81
2017-08-12T03:20:26.491Z,99.81
2017-08-12T03:20:54.594Z,99.91
2017-08-12T03:21:22.806Z,99.81
2017-08-12T03:21:50.961Z,99.91
2017-08-12T03:22:19.225Z,99.81
2017-08-12T03:22:47.270Z,99.99
2017-08-12T03:23:15.366Z,99.72
2017-08-12T03:23:43.529Z,99.72
2017-08-12T03:24:11.569Z,99.91
2017-08-12T03:24:39.776Z,99.72
2017-08-12T03:25:07.927Z,99.91
2017-08-12T03:25:36.161Z,99.91
2017-08-12T03:26:04.177Z,99.91
2017-08-12T03:26:32.423Z,99.52
2017-08-12T03:27:00.646Z,99.99
2017-08-12T03:27:28.827Z,99.91
2017-08-12T03:27:57.007Z,99.99
2017-08-12T03:28:25.288Z,99.72
2017-08-12T03:28:53.545Z,99.99
2017-08-12T03:29:21.818Z,99.99
2017-08-12T03:29:49.979Z,99.99
2017-08-12T03:30:18.185Z,99.81
2017-08-12T03:30:46.177Z,99.99
2017-08-12T03:31:14.363Z,99.91
2017-08-12T03:31:42.637Z,99.99
2017-08-12T03:32:10.768Z,99.99
2017-08-12T03:32:38.970Z,99.91
2017-08-12T03:33:07.294Z,99.81
2017-08-12T03:33:35.523Z,99.67
2017-08-12T03:34:03.613Z,99.67
2017-08-12T03:34:31.935Z,99.58
2017-08-12T03:35:00.148Z,99
2017-08-12T03:35:28.082Z,98.81
2017-08-12T03:35:56.194Z,99.19
2017-08-12T03:36:24.366Z,99.1
2017-08-12T03:36:52.530Z,99.33
2017-08-12T03:37:20.756Z,99.38
2017-08-12T03:37:48.735Z,99.29
2017-08-12T03:38:16.851Z,99.1
2017-08-12T03:38:45.118Z,99.29
2017-08-12T03:39:13.083Z,98.91
2017-08-12T03:39:41.416Z,98.91
2017-08-12T03:40:09.618Z,98.86
2017-08-12T03:40:37.765Z,98.86
2017-08-12T03:41:05.908Z,98.71
2017-08-12T03:41:33.960Z,98.95
2017-08-12T03:42:02.115Z,99
2017-08-12T03:42:30.205Z,98.91
2017-08-12T03:42:58.435Z,99.19
2017-08-12T03:43:26.628Z,98.91
2017-08-12T03:43:54.840Z,98.71
2017-08-12T03:44:22.982Z,99.1
2017-08-12T03:44:51.220Z,98.86
2017-08-12T03:45:19.281Z,99.1
2017-08-12T03:45:47.437Z,99.05
2017-08-12T03:46:15.698Z,98.76
2017-08-12T03:46:43.666Z,98.86
2017-08-12T03:47:11.800Z,98.91
2017-08-12T03:47:39.951Z,98.91
2017-08-12T03:48:07.896Z,99
2017-08-12T03:48:36.095Z,98.91
2017-08-12T03:49:04.360Z,98.66
2017-08-12T03:49:32.608Z,99.1
2017-08-12T03:50:00.805Z,99.1
2017-08-12T03:50:29.043Z,99.1
2017-08-12T03:50:57.357Z,98.91
2017-08-12T03:51:25.470Z,99.1
2017-08-12T03:51:53.619Z,98.52
2017-08-12T03:52:21.715Z,98.43
2017-08-12T03:52:49.956Z,98.52
2017-08-12T03:53:18.075Z,98.52
2017-08-12T03:53:46.365Z,98.91
2017-08-12T03:54:14.608Z,98.81
2017-08-12T03:54:42.760Z,98.47
2017-08-12T03:55:10.882Z,98.62
2017-08-12T03:55:39.000Z,98.62
2017-08-12T03:56:07.294Z,98.33
2017-08-12T03:56:35.248Z,98.14
2017-08-12T03:57:03.503Z,98.33
2017-08-12T03:57:31.627Z,98.14
2017-08-12T03:57:59.778Z,98.52
2017-08-12T03:58:28.023Z,97.56
2017-08-12T03:58:56.251Z,97.95
2017-08-12T03:59:24.378Z,97.56
2017-08-12T03:59:52.632Z,98.43
2017-08-12T04:00:20.910Z,98.33
2017-08-12T04:00:48.940Z,97.95
2017-08-12T04:01:17.121Z,97.56
2017-08-12T04:01:45.542Z,97.47
2017-08-12T04:02:13.543Z,97.75
2017-08-12T04:02:41.611Z,97.47
2017-08-12T04:03:09.717Z,97.9
2017-08-12T04:03:37.931Z,98
2017-08-12T04:04:06.186Z,97.8
2017-08-12T04:04:34.300Z,97.85
2017-08-12T04:05:02.634Z,97.71
2017-08-12T04:05:30.624Z,97.85
2017-08-12T04:05:58.791Z,97.85
2017-08-12T04:06:26.746Z,97.56
2017-08-12T04:06:54.890Z,97.66
2017-08-12T04:07:23.160Z,97.66
2017-08-12T04:07:51.382Z,97.85
2017-08-12T04:08:19.697Z,98.14
2017-08-12T04:08:47.829Z,97.38
2017-08-12T04:09:15.951Z,97.38
2017-08-12T04:09:44.034Z,97.47
2017-08-12T04:10:12.202Z,97.71
2017-08-12T04:10:40.341Z,97.56
2017-08-12T04:11:08.499Z,97.33
2017-08-12T04:11:36.526Z,97.42
2017-08-12T04:12:04.681Z,97.52
2017-08-12T04:12:32.926Z,97.61
2017-08-12T04:13:01.058Z,97.52
2017-08-12T04:13:29.304Z,97.71
2017-08-12T04:13:57.440Z,97.8
2017-08-12T04:14:25.649Z,98.09
2017-08-12T04:14:53.767Z,97.8
2017-08-12T04:15:21.847Z,97.61
2017-08-12T04:15:49.975Z,97.61
2017-08-12T04:16:18.003Z,97.61
2017-08-12T04:16:46.052Z,97.8
2017-08-12T04:17:14.200Z,98.09
2017-08-12T04:17:42.283Z,97.9
2017-08-12T04:18:10.508Z,97.8
2017-08-12T04:18:38.634Z,97.52
2017-08-12T04:19:06.789Z,97.52
2017-08-12T04:19:34.932Z,97.61
2017-08-12T04:20:03.120Z,97.52
2017-08-12T04:20:31.260Z,97.52
2017-08-12T04:20:59.332Z,97.42
2017-08-12T04:21:27.258Z,97.61
2017-08-12T04:21:55.529Z,97.38
2017-08-12T04:22:23.774Z,97.71
2017-08-12T04:22:51.998Z,97.52
2017-08-12T04:23:20.154Z,97.61
2017-08-12T04:23:48.200Z,97.71
2017-08-12T04:24:16.381Z,97.9
2017-08-12T04:24:44.431Z,97.71
2017-08-12T04:25:12.579Z,97.71
2017-08-12T04:25:40.868Z,98
2017-08-12T04:26:09.112Z,98.09
2017-08-12T04:26:37.378Z,97.61
2017-08-12T04:27:05.473Z,97.8
2017-08-12T04:27:33.513Z,97.52
2017-08-12T04:28:01.802Z,97.52
2017-08-12T04:28:29.928Z,97.61
2017-08-12T04:28:58.121Z,97.71
2017-08-12T04:29:26.376Z,97.61
2017-08-12T04:29:54.418Z,97.61
2017-08-12T04:30:22.602Z,97.52
2017-08-12T04:30:50.755Z,98
2017-08-12T04:31:19.020Z,98
2017-08-12T04:31:47.235Z,97.9
2017-08-12T04:32:15.268Z,97.9
2017-08-12T04:32:43.490Z,97.8
2017-08-12T04:33:11.651Z,97.61
2017-08-12T04:33:39.617Z,98.38
2017-08-12T04:34:07.789Z,98.09
2017-08-12T04:34:35.862Z,98.19
2017-08-12T04:35:04.034Z,98.19
2017-08-12T04:35:32.374Z,97.8
2017-08-12T04:36:00.636Z,97.61
2017-08-12T04:36:28.927Z,97.61
2017-08-12T04:36:57.081Z,97.8
2017-08-12T04:37:25.294Z,97.71
2017-08-12T04:37:53.382Z,97.61
2017-08-12T04:38:21.579Z,97.61
2017-08-12T04:38:49.766Z,98
2017-08-12T04:39:17.863Z,97.9
2017-08-12T04:39:46.104Z,97.8
2017-08-12T04:40:14.362Z,97.8
2017-08-12T04:40:42.528Z,98.38
2017-08-12T04:41:10.705Z,98.19
2017-08-12T04:41:38.797Z,98.28
2017-08-12T04:42:06.878Z,97.9
2017-08-12T04:42:34.942Z,97.61
2017-08-12T04:43:03.128Z,98.28
2017-08-12T04:43:31.302Z,98.28
2017-08-12T04:43:59.268Z,98.19
2017-08-12T04:44:27.508Z,98.19
2017-08-12T04:44:55.681Z,98.28
2017-08-12T04:45:23.866Z,98.28
2017-08-12T04:45:51.967Z,98.47
2017-08-12T04:46:20.037Z,98.28
2017-08-12T04:46:48.000Z,98.47
2017-08-12T04:47:16.021Z,98.19
2017-08-12T04:47:44.015Z,98.57
2017-08-12T04:48:11.836Z,98.57
2017-08-12T04:48:39.874Z,98.38
2017-08-12T04:49:07.989Z,98.47
2017-08-12T04:49:36.029Z,98.28
2017-08-12T04:50:04.153Z,98.57
2017-08-12T04:50:32.357Z,98.38
2017-08-12T04:51:00.386Z,98.38
2017-08-12T04:51:28.375Z,98.09
2017-08-12T04:51:56.509Z,98
2017-08-12T04:52:24.669Z,98.19
2017-08-12T04:52:52.787Z,98.28
2017-08-12T04:53:20.897Z,98.47
2017-08-12T04:53:49.080Z,98.19
2017-08-12T04:54:16.990Z,98.47
2017-08-12T04:54:45.014Z,98.76
2017-08-12T04:55:13.088Z,98.66
2017-08-12T04:55:41.215Z,98.76
2017-08-12T04:56:09.468Z,98.38
2017-08-12T04:56:37.562Z,98.57
2017-08-12T04:57:05.631Z,97.9
2017-08-12T04:57:33.853Z,98.47
2017-08-12T04:58:02.014Z,97.9
2017-08-12T04:58:30.007Z,98.57
2017-08-12T04:58:58.182Z,98.57
2017-08-12T04:59:26.262Z,98.09
2017-08-12T04:59:54.352Z,98.09
2017-08-12T05:00:22.440Z,98.28
2017-08-12T05:00:50.600Z,98.28
2017-08-12T05:01:18.631Z,98.19
2017-08-12T05:01:46.684Z,98.28
2017-08-12T05:02:14.846Z,97.9
2017-08-12T05:02:42.968Z,98.09
2017-08-12T05:03:11.014Z,98.09
2017-08-12T05:03:39.091Z,98.28
2017-08-12T05:04:07.294Z,98
2017-08-12T05:04:35.539Z,98.57
2017-08-12T05:05:03.726Z,98.66
2017-08-12T05:05:31.936Z,98.66
2017-08-12T05:06:00.113Z,98.09
2017-08-12T05:06:28.329Z,98
2017-08-12T05:06:56.412Z,98.57
2017-08-12T05:07:24.510Z,98.57
2017-08-12T05:07:52.586Z,98.47
2017-08-12T05:08:20.584Z,98.57
2017-08-12T05:08:48.676Z,98.47
2017-08-12T05:09:16.760Z,98.76
2017-08-12T05:09:44.857Z,98.57
2017-08-12T05:10:13.006Z,97.9
2017-08-12T05:10:41.212Z,98.28
2017-08-12T05:11:09.187Z,98.09
2017-08-12T05:11:37.168Z,98.47
2017-08-12T05:12:05.380Z,98.57
2017-08-12T05:12:33.325Z,98.57
2017-08-12T05:13:01.602Z,98.47
2017-08-12T05:13:29.709Z,98.47
2017-08-12T05:13:57.820Z,98.28
2017-08-12T05:14:26.020Z,98.28
2017-08-12T05:14:54.212Z,98.76
2017-08-12T05:15:22.299Z,98.86
2017-08-12T05:15:50.496Z,98.66
2017-08-12T05:16:18.617Z,98.66
2017-08-12T05:16:46.716Z,98.76
2017-08-12T05:17:14.921Z,98.38
2017-08-12T05:17:43.060Z,98.28
2017-08-12T05:18:11.166Z,98.47
2017-08-12T05:18:39.324Z,98.57
2017-08-12T05:19:07.333Z,98.38
2017-08-12T05:19:35.317Z,98.38
2017-08-12T05:20:03.333Z,98.47
2017-08-12T05:20:31.443Z,98.38
2017-08-12T05:20:59.680Z,98.57
2017-08-12T05:21:27.702Z,98.57
2017-08-12T05:21:55.810Z,98.57
2017-08-12T05:22:23.890Z,98.47
2017-08-12T05:22:52.016Z,98.47
2017-08-12T05:23:20.185Z,98.76
2017-08-12T05:23:48.249Z,97.9
2017-08-12T05:24:16.381Z,98.66
2017-08-12T05:24:44.494Z,98.47
2017-08-12T05:25:12.679Z,98.09
2017-08-12T05:25:40.795Z,98.38
2017-08-12T05:26:08.987Z,98.28
2017-08-12T05:26:36.988Z,98.38
2017-08-12T05:27:05.190Z,98.28
2017-08-12T05:27:33.413Z,98.28
2017-08-12T05:28:01.417Z,98.09
2017-08-12T05:28:29.332Z,98.28
2017-08-12T05:28:57.550Z,98.09
2017-08-12T05:29:25.591Z,98.28
2017-08-12T05:29:53.789Z,98.28
2017-08-12T05:30:21.888Z,98.28
2017-08-12T05:30:50.187Z,98.57
2017-08-12T05:31:18.299Z,98.66
2017-08-12T05:31:46.498Z,98.28
2017-08-12T05:32:14.589Z,98.47
2017-08-12T05:32:42.754Z,98.76
2017-08-12T05:33:10.795Z,98.47
2017-08-12T05:33:38.832Z,98.76
2017-08-12T05:34:07.039Z,98.76
2017-08-12T05:34:35.116Z,98.28
2017-08-12T05:35:03.334Z,98.28
2017-08-12T05:35:31.407Z,98.38
2017-08-12T05:35:59.583Z,97.9
2017-08-12T05:36:27.745Z,98.57
2017-08-12T05:36:55.906Z,98.76
2017-08-12T05:37:24.039Z,98.57
2017-08-12T05:37:52.098Z,98.47
2017-08-12T05:38:20.246Z,98.47
2017-08-12T05:38:48.429Z,98.28
2017-08-12T05:39:16.634Z,98.66
2017-08-12T05:39:44.726Z,98.76
2017-08-12T05:40:12.919Z,98.86
2017-08-12T05:40:40.940Z,98.86
2017-08-12T05:41:09.227Z,98.86
2017-08-12T05:41:37.440Z,98.76
2017-08-12T05:42:05.540Z,98.28
2017-08-12T05:42:33.647Z,98.47
2017-08-12T05:43:01.782Z,98.47
2017-08-12T05:43:29.978Z,98.95
2017-08-12T05:43:58.177Z,98.86
2017-08-12T05:44:26.156Z,98.86
2017-08-12T05:44:54.221Z,98.86
2017-08-12T05:45:22.345Z,99.05
2017-08-12T05:45:50.466Z,99
2017-08-12T05:46:18.699Z,99.57
2017-08-12T05:46:46.691Z,99.62
2017-08-12T05:47:14.803Z,99.57
2017-08-12T05:47:43.017Z,99.67
2017-08-12T05:48:11.115Z,99.67
2017-08-12T05:48:39.310Z,99.38
2017-08-12T05:49:07.400Z,99.57
2017-08-12T05:49:35.559Z,99.48
2017-08-12T05:50:03.785Z,99.38
2017-08-12T05:50:31.856Z,99.48
2017-08-12T05:51:00.010Z,99.1
2017-08-12T05:51:28.179Z,99.48
2017-08-12T05:51:56.235Z,99.62
2017-08-12T05:52:24.383Z,99.52
2017-08-12T05:52:52.533Z,99.48
2017-08-12T05:53:20.510Z,99.48
2017-08-12T05:53:48.626Z,99.62
2017-08-12T05:54:16.707Z,99.52
2017-08-12T05:54:44.906Z,99.99
2017-08-12T05:55:12.971Z,99.52
2017-08-12T05:55:41.056Z,99.62
2017-08-12T05:56:09.370Z,99.62
2017-08-12T05:56:37.508Z,99.48
2017-08-12T05:57:05.618Z,99.52
2017-08-12T05:57:33.678Z,99.67
2017-08-12T05:58:01.763Z,99.52
2017-08-12T05:58:29.863Z,99.72
2017-08-12T05:58:57.941Z,99.48
2017-08-12T05:59:26.005Z,98.95
2017-08-12T05:59:54.092Z,99.62
2017-08-12T06:00:22.116Z,99.33
2017-08-12T06:00:50.312Z,98.76
2017-08-12T06:01:18.332Z,99.15
2017-08-12T06:01:46.440Z,99.43
2017-08-12T06:02:14.523Z,99.24
2017-08-12T06:02:42.528Z,99.15
2017-08-12T06:03:10.626Z,99.33